Terminal Aerodrome Forecast
Issued by NWS

Home | Current Version | Previous Version | Graphics & Text | Print | Product List | Glossary On
Versions: 1 2 3 4 5 6 7 8 9 10 11 12 13 14 15 16 17 18 19 20 21 22
000
FTUS41 KCLE 272328
TAFFDY
TAF
KFDY 272328Z 2800/2824 06012KT P6SM SCT030 OVC050
     FM280300 00000KT P6SM SCT050 BKN120
     FM280600 VRB03KT P6SM BKN060
     FM281000 VRB03KT 5SM BR BKN015
      TEMPO 2810/2813 3SM BR BKN006 OVC015
     FM281300 12004KT 3SM -SHRA BKN035
      TEMPO 2813/2816 3SM -TSRA BR OVC025CB
     FM281600 15005KT 5SM -SHRA BKN045
      TEMPO 2816/2820 3SM -TSRA BR OVC025CB=

USA.gov is the U.S. government's official web portal to all federal, state and local government web resources and services.